Time;durP1;ratioP1;P1;durP2;ratioP2;P2;SDS_P1;SDS_P2;PMS_P1;PMS_P2;Temp;Humidity;BMP_temperature;BMP_pressure;BME280_temperature;BME280_humidity;BME280_pressure;Samples;Min_cycle;Max_cycle;Signal;HPM_P1;HPM_P2
2021/09/01 00:00:11;;;;;;;8.48;5.13;;;;;;;16.51;90.71;100095.16;5094256;28;20042;-72
2021/09/01 00:02:40;;;;;;;7.43;5.22;;;;;;;16.44;91.28;100102.03;5093940;28;20067;-72
2021/09/01 00:05:10;;;;;;;7.18;4.90;;;;;;;16.46;91.32;100110.84;5075911;28;20071;-72
2021/09/01 00:07:39;;;;;;;9.00;5.43;;;;;;;16.50;90.91;100123.06;5093733;28;20040;-76
2021/09/01 00:10:08;;;;;;;8.32;5.68;;;;;;;16.41;91.50;100107.69;5094055;28;20047;-70
2021/09/01 00:12:38;;;;;;;7.90;5.00;;;;;;;16.42;91.48;100103.16;5093649;28;20481;-71
2021/09/01 00:15:08;;;;;;;7.38;4.28;;;;;;;16.39;91.70;100112.34;5094023;28;20455;-71
2021/09/01 00:17:37;;;;;;;6.80;4.75;;;;;;;16.38;91.95;100107.94;5093922;28;20063;-74
2021/09/01 00:20:08;;;;;;;7.93;5.10;;;;;;;16.44;91.45;100112.81;5093912;28;20036;-73
2021/09/01 00:22:37;;;;;;;7.75;4.90;;;;;;;16.41;91.39;100105.00;5076048;28;20072;-73
2021/09/01 00:25:10;;;;;;;7.07;4.65;;;;;;;16.44;91.65;100106.56;5093997;28;20142;-73
2021/09/01 00:27:40;;;;;;;7.68;5.10;;;;;;;16.41;91.50;100113.09;5076070;28;20393;-73
2021/09/01 00:30:08;;;;;;;8.60;4.90;;;;;;;16.39;91.73;100112.34;5093897;28;20036;-72
2021/09/01 00:32:37;;;;;;;8.50;4.68;;;;;;;16.37;91.77;100119.69;5093720;28;20431;-72
2021/09/01 00:35:06;;;;;;;8.02;5.22;;;;;;;16.34;91.72;100105.66;5092978;28;20067;-73
2021/09/01 00:37:34;;;;;;;8.48;5.55;;;;;;;16.35;92.01;100119.00;5093604;28;20044;-73
2021/09/01 00:40:03;;;;;;;7.47;5.22;;;;;;;16.26;92.10;100119.78;5093289;28;20123;-72
2021/09/01 00:42:34;;;;;;;7.60;4.40;;;;;;;16.29;92.26;100114.13;5093508;28;20056;-71
2021/09/01 00:45:08;;;;;;;7.03;4.45;;;;;;;16.26;92.22;100109.00;5092994;28;20089;-71
2021/09/01 00:47:37;;;;;;;8.07;5.03;;;;;;;16.24;92.30;100116.38;5093687;28;20040;-73
2021/09/01 00:50:07;;;;;;;7.07;5.03;;;;;;;16.30;91.71;100118.50;5093182;28;20048;-72
2021/09/01 00:52:39;;;;;;;7.93;5.03;;;;;;;16.27;91.98;100116.09;5093148;28;20119;-72
2021/09/01 00:55:08;;;;;;;7.30;4.18;;;;;;;16.28;92.02;100101.66;5093418;28;20052;-72
2021/09/01 00:57:41;;;;;;;7.07;3.53;;;;;;;16.24;92.00;100097.53;5093548;28;20098;-72
2021/09/01 01:00:19;;;;;;;5.50;2.80;;;;;;;16.22;92.31;100102.19;5093495;28;20036;-71
2021/09/01 01:02:47;;;;;;;7.97;4.18;;;;;;;16.20;92.43;100114.91;5093080;28;20488;-71
2021/09/01 01:05:18;;;;;;;7.97;4.85;;;;;;;16.20;92.62;100121.16;5093443;28;20048;-72
2021/09/01 01:07:46;;;;;;;9.25;4.97;;;;;;;16.20;92.63;100121.16;5092663;28;20070;-76
2021/09/01 01:10:17;;;;;;;7.80;4.68;;;;;;;16.20;92.71;100117.59;5093264;28;20043;-74
2021/09/01 01:12:45;;;;;;;7.07;4.47;;;;;;;16.16;93.03;100125.09;5092443;28;20463;-74
2021/09/01 01:15:17;;;;;;;7.25;4.97;;;;;;;16.14;93.44;100136.97;5093218;28;20048;-75
2021/09/01 01:17:45;;;;;;;7.35;5.10;;;;;;;16.17;93.27;100121.41;5092902;28;20135;-72
2021/09/01 01:20:14;;;;;;;7.95;5.28;;;;;;;16.19;93.32;100145.50;5092950;28;20040;-72
2021/09/01 01:22:42;;;;;;;7.13;4.28;;;;;;;16.17;93.04;100147.47;5093109;28;20052;-72
2021/09/01 01:25:17;;;;;;;7.57;4.50;;;;;;;16.15;93.07;100136.84;5075004;28;20052;-71
2021/09/01 01:27:49;;;;;;;7.13;4.88;;;;;;;16.14;93.12;100132.44;5092805;28;20131;-72
2021/09/01 01:30:19;;;;;;;7.97;4.95;;;;;;;16.10;93.29;100131.00;5092847;28;20105;-72
2021/09/01 01:32:49;;;;;;;7.47;4.72;;;;;;;16.08;93.29;100130.28;5092430;28;20062;-72
2021/09/01 01:35:25;;;;;;;8.52;4.72;;;;;;;16.10;92.85;100135.50;5092930;28;20397;-72
2021/09/01 01:37:56;;;;;;;8.13;5.20;;;;;;;16.09;93.13;100125.75;5092488;28;20415;-72
2021/09/01 01:40:27;;;;;;;6.45;4.07;;;;;;;16.14;92.80;100134.28;5093002;28;20067;-72
2021/09/01 01:42:57;;;;;;;8.90;5.40;;;;;;;16.10;92.94;100128.28;5074437;28;20059;-72
2021/09/01 01:45:32;;;;;;;7.07;4.57;;;;;;;16.08;92.97;100132.97;5093088;28;20048;-72
2021/09/01 01:48:01;;;;;;;7.18;4.70;;;;;;;16.13;92.56;100119.13;5096770;28;20132;-75
2021/09/01 01:50:36;;;;;;;7.77;4.53;;;;;;;16.09;92.71;100123.06;5096907;28;20381;-70
2021/09/01 01:53:06;;;;;;;8.73;5.03;;;;;;;16.07;92.69;100130.41;5096409;28;20044;-70
2021/09/01 01:55:37;;;;;;;9.32;5.05;;;;;;;16.06;93.01;100132.25;5096407;28;20062;-70
2021/09/01 01:58:09;;;;;;;8.25;4.90;;;;;;;16.07;92.91;100138.47;5096480;28;20804;-70
2021/09/01 02:00:38;;;;;;;6.83;4.40;;;;;;;16.03;93.26;100138.75;5096739;28;20071;-70
2021/09/01 02:03:06;;;;;;;9.15;5.07;;;;;;;16.01;93.50;100138.00;5096216;28;20291;-70
2021/09/01 02:05:35;;;;;;;8.05;4.28;;;;;;;15.95;93.93;100127.78;5078450;28;20074;-70
2021/09/01 02:08:03;;;;;;;8.52;5.18;;;;;;;15.96;93.91;100132.16;5096116;28;20044;-70
2021/09/01 02:10:36;;;;;;;7.25;4.15;;;;;;;15.92;94.00;100119.97;5096461;28;20389;-70
2021/09/01 02:13:07;;;;;;;7.55;4.95;;;;;;;15.93;94.09;100134.28;5096035;28;20470;-74
2021/09/01 02:15:37;;;;;;;7.15;4.68;;;;;;;15.93;94.07;100121.69;5096060;28;20498;-73
2021/09/01 02:18:05;;;;;;;8.63;5.22;;;;;;;15.90;93.71;100119.22;5095970;28;20397;-72
2021/09/01 02:20:34;;;;;;;8.32;4.88;;;;;;;15.92;93.73;100132.53;5096176;28;20040;-71
2021/09/01 02:23:02;;;;;;;7.72;5.25;;;;;;;15.87;93.68;100130.25;5095833;28;20068;-72
2021/09/01 02:25:30;;;;;;;8.25;5.13;;;;;;;15.89;93.63;100128.28;5096104;28;20048;-72
2021/09/01 02:28:01;;;;;;;6.22;4.53;;;;;;;15.90;93.64;100118.38;5095559;28;20105;-72
2021/09/01 02:30:29;;;;;;;8.05;5.22;;;;;;;15.92;93.84;100135.22;5096147;28;20039;-72
2021/09/01 02:32:59;;;;;;;6.93;4.18;;;;;;;15.92;93.41;100125.34;5095625;28;20465;-75
2021/09/01 02:35:27;;;;;;;8.40;5.57;;;;;;;15.92;93.58;100124.47;5095965;28;20070;-73
2021/09/01 02:37:55;;;;;;;9.30;5.60;;;;;;;15.89;93.72;100128.28;5095121;28;20044;-74
2021/09/01 02:40:26;;;;;;;8.02;5.30;;;;;;;15.92;93.14;100128.03;5095534;28;20048;-73
2021/09/01 02:42:54;;;;;;;10.07;4.75;;;;;;;15.95;93.06;100146.59;5095360;28;20405;-73
2021/09/01 02:45:22;;;;;;;8.02;5.05;;;;;;;15.90;93.04;100151.50;5077787;28;20056;-74
2021/09/01 02:47:57;;;;;;;8.23;5.53;;;;;;;15.93;93.30;100153.09;5095652;28;20438;-71
2021/09/01 02:50:27;;;;;;;7.53;5.47;;;;;;;15.92;93.42;100159.44;5095836;28;20040;-71
2021/09/01 02:53:03;;;;;;;8.18;5.75;;;;;;;15.92;93.56;100146.88;5095214;28;20450;-72
2021/09/01 02:55:31;;;;;;;10.05;5.88;;;;;;;15.89;93.57;100155.19;5095312;28;20036;-71
2021/09/01 02:57:59;;;;;;;8.13;4.90;;;;;;;15.92;93.13;100154.94;5076919;28;20184;-73
2021/09/01 03:00:31;;;;;;;9.77;5.53;;;;;;;15.94;93.00;100163.72;5077261;28;20048;-74
2021/09/01 03:02:59;;;;;;;8.82;5.13;;;;;;;15.97;92.97;100160.78;5095044;28;20040;-74
2021/09/01 03:05:31;;;;;;;10.48;5.93;;;;;;;15.96;92.57;100167.13;5095237;28;20068;-74
2021/09/01 03:08:00;;;;;;;7.63;5.60;;;;;;;15.99;92.62;100166.03;5076998;28;20048;-74
2021/09/01 03:10:28;;;;;;;7.93;5.78;;;;;;;15.91;92.95;100171.19;5095345;28;20390;-74
2021/09/01 03:12:56;;;;;;;9.75;5.53;;;;;;;15.94;92.81;100169.13;5094812;28;20401;-74
2021/09/01 03:15:24;;;;;;;9.88;5.78;;;;;;;15.94;92.95;100169.13;5077543;28;20055;-74
2021/09/01 03:17:52;;;;;;;7.97;5.63;;;;;;;15.94;92.96;100168.25;5094759;28;20052;-73
2021/09/01 03:20:23;;;;;;;9.20;5.93;;;;;;;15.92;92.94;100167.50;5095465;28;20450;-72
2021/09/01 03:22:53;;;;;;;8.35;6.10;;;;;;;15.94;92.55;100174.50;5094986;28;20040;-73
2021/09/01 03:25:22;;;;;;;10.30;5.38;;;;;;;15.91;92.91;100168.50;5077165;28;20056;-71
2021/09/01 03:27:51;;;;;;;8.45;5.72;;;;;;;15.87;93.07;100173.28;5094884;28;20043;-75
2021/09/01 03:30:22;;;;;;;9.77;5.53;;;;;;;15.86;92.96;100170.72;5094655;28;20044;-70
2021/09/01 03:32:50;;;;;;;9.35;6.80;;;;;;;15.87;92.88;100169.75;5094770;28;20123;-70
2021/09/01 03:35:19;;;;;;;9.73;6.47;;;;;;;15.83;92.61;100169.16;5094754;28;20046;-71
2021/09/01 03:37:47;;;;;;;10.55;5.97;;;;;;;15.86;92.68;100173.41;5076628;28;20054;-70
2021/09/01 03:40:17;;;;;;;9.65;6.05;;;;;;;15.85;92.49;100177.94;5094094;28;20377;-72
2021/09/01 03:42:45;;;;;;;8.90;5.82;;;;;;;15.85;92.76;100175.25;5094396;28;20044;-71
2021/09/01 03:45:16;;;;;;;9.18;5.85;;;;;;;15.82;92.52;100186.25;5094275;28;20412;-72
2021/09/01 03:47:45;;;;;;;11.52;6.43;;;;;;;15.77;92.35;100190.31;5094709;28;20044;-71
2021/09/01 03:50:16;;;;;;;8.90;6.40;;;;;;;15.71;92.50;100181.75;5094154;28;20071;-71
2021/09/01 03:52:44;;;;;;;8.27;6.10;;;;;;;15.71;92.49;100188.97;5094085;28;20131;-71
2021/09/01 03:55:15;;;;;;;10.40;6.43;;;;;;;15.66;92.55;100197.44;5075774;28;20056;-71
2021/09/01 03:57:44;;;;;;;12.93;6.82;;;;;;;15.67;92.73;100203.66;5094364;28;20132;-72
2021/09/01 04:00:13;;;;;;;8.88;6.22;;;;;;;15.63;92.69;100202.19;5094004;28;20072;-72
2021/09/01 04:02:42;;;;;;;11.10;6.32;;;;;;;15.64;92.46;100209.31;5094221;28;20101;-72
2021/09/01 04:05:11;;;;;;;9.98;6.05;;;;;;;15.62;92.70;100211.25;5093514;28;20135;-71
2021/09/01 04:07:41;;;;;;;9.45;6.28;;;;;;;15.57;92.67;100200.00;5093991;28;20143;-72
2021/09/01 04:10:11;;;;;;;9.10;5.43;;;;;;;15.56;92.74;100211.72;5093100;28;20129;-72
2021/09/01 04:12:41;;;;;;;15.90;5.78;;;;;;;15.56;92.54;100209.03;5094037;28;20064;-71
2021/09/01 04:15:10;;;;;;;10.02;6.75;;;;;;;15.51;92.37;100213.91;5093547;28;20044;-74
2021/09/01 04:17:38;;;;;;;10.30;5.40;;;;;;;15.49;92.09;100202.44;5093969;28;20097;-73
2021/09/01 04:20:08;;;;;;;8.43;5.55;;;;;;;15.44;92.22;100209.06;5093628;28;20048;-74
2021/09/01 04:22:37;;;;;;;11.23;5.75;;;;;;;15.44;92.13;100203.69;5093973;28;20437;-72
2021/09/01 04:25:06;;;;;;;12.68;6.60;;;;;;;15.43;91.95;100212.69;5074856;28;20048;-72
2021/09/01 04:27:35;;;;;;;6.78;3.58;;;;;;;15.47;91.43;100202.56;5075972;28;20455;-75
2021/09/01 04:30:08;;;;;;;8.93;5.32;;;;;;;15.46;91.49;100206.25;5075204;28;20048;-74
2021/09/01 04:32:39;;;;;;;10.77;6.15;;;;;;;15.46;91.18;100214.31;5093419;28;20044;-76
2021/09/01 04:35:10;;;;;;;8.20;5.05;;;;;;;15.52;90.71;100215.63;5093290;28;20132;-75
2021/09/01 04:37:39;;;;;;;10.30;6.85;;;;;;;15.49;90.79;100213.19;5093308;28;20048;-74
2021/09/01 04:40:08;;;;;;;9.10;4.82;;;;;;;15.55;90.26;100210.03;5093222;28;20047;-71
2021/09/01 04:42:37;;;;;;;8.57;5.70;;;;;;;15.54;90.20;100219.94;5093408;28;20043;-71
2021/09/01 04:45:06;;;;;;;8.20;4.28;;;;;;;15.56;89.65;100227.88;5093181;28;20071;-74
2021/09/01 04:47:35;;;;;;;12.57;6.63;;;;;;;15.52;89.83;100223.69;5093926;28;20070;-73
2021/09/01 04:50:06;;;;;;;9.75;6.38;;;;;;;15.62;89.43;100222.00;5093213;28;20040;-72
2021/09/01 04:52:38;;;;;;;11.25;5.85;;;;;;;15.66;89.16;100228.84;5093476;28;20465;-73
2021/09/01 04:55:10;;;;;;;9.18;5.55;;;;;;;15.60;89.08;100226.63;5093031;28;20043;-70
2021/09/01 04:57:41;;;;;;;12.43;6.47;;;;;;;15.59;89.33;100216.84;5093509;28;20043;-69
2021/09/01 05:00:10;;;;;;;7.72;4.60;;;;;;;15.65;88.84;100221.78;5092865;28;20101;-69
2021/09/01 05:02:40;;;;;;;8.50;5.55;;;;;;;15.62;88.66;100222.00;5092950;28;20131;-70
2021/09/01 05:05:09;;;;;;;12.05;6.13;;;;;;;15.80;88.41;100225.00;5092800;28;20046;-70
2021/09/01 05:07:37;;;;;;;8.30;5.47;;;;;;;15.74;87.93;100205.72;5093030;28;20097;-70
2021/09/01 05:10:07;;;;;;;10.85;6.28;;;;;;;15.88;87.45;100212.66;5092456;28;20050;-70
2021/09/01 05:12:37;;;;;;;10.98;6.75;;;;;;;16.02;86.85;100225.81;5092808;28;20044;-72
2021/09/01 05:15:06;;;;;;;11.50;6.43;;;;;;;16.02;86.59;100227.66;5092751;28;20086;-71
2021/09/01 05:17:34;;;;;;;11.45;6.55;;;;;;;16.20;85.87;100227.94;5092470;28;20570;-76
2021/09/01 05:20:05;;;;;;;11.15;5.50;;;;;;;16.17;85.77;100223.69;5093367;28;20090;-76
2021/09/01 05:22:38;;;;;;;10.38;6.10;;;;;;;16.12;85.45;100214.28;5095495;28;20445;-76
2021/09/01 05:25:09;;;;;;;10.18;4.78;;;;;;;16.18;85.36;100233.44;5084438;28;20041;-76
2021/09/01 05:27:39;;;;;;;10.68;6.40;;;;;;;16.18;85.04;100233.44;5084935;28;20044;-76
2021/09/01 05:30:14;;;;;;;9.02;5.90;;;;;;;16.23;84.81;100227.69;5084748;28;20102;-76
2021/09/01 05:32:49;;;;;;;13.57;6.38;;;;;;;16.18;84.63;100213.75;5087783;28;20068;-76
2021/09/01 05:35:19;;;;;;;10.25;5.57;;;;;;;16.10;85.15;100219.78;5086354;28;20040;-74
2021/09/01 05:37:52;;;;;;;8.35;5.35;;;;;;;16.11;84.96;100229.56;5087617;28;20111;-73
2021/09/01 05:40:21;;;;;;;9.55;6.07;;;;;;;15.86;85.60;100220.00;5089242;28;20040;-74
2021/09/01 05:42:50;;;;;;;8.27;4.03;;;;;;;15.72;86.39;100231.03;5087328;28;20052;-73
2021/09/01 05:45:18;;;;;;;9.25;5.95;;;;;;;15.86;86.04;100236.13;5085977;28;20043;-75
2021/09/01 05:47:47;;;;;;;11.18;5.43;;;;;;;15.80;85.99;100231.25;5094160;28;20379;-71
2021/09/01 05:50:16;;;;;;;9.02;5.90;;;;;;;15.89;86.20;100235.88;5096713;28;20447;-74
2021/09/01 05:52:46;;;;;;;11.15;5.53;;;;;;;15.95;85.33;100235.38;5096817;28;20132;-73
2021/09/01 05:55:15;;;;;;;9.75;6.10;;;;;;;16.01;85.13;100237.53;5096256;28;20335;-77
2021/09/01 05:57:45;;;;;;;10.73;6.35;;;;;;;16.21;84.20;100232.31;5094090;28;20046;-75
2021/09/01 06:00:15;;;;;;;11.38;6.00;;;;;;;16.59;82.01;100223.69;5096443;28;20040;-71
2021/09/01 06:02:49;;;;;;;7.53;3.45;;;;;;;16.67;81.45;100236.50;5096398;28;20044;-71
2021/09/01 06:05:19;;;;;;;10.88;5.68;;;;;;;16.60;81.59;100228.97;5096023;28;20052;-71
2021/09/01 06:07:53;;;;;;;12.60;6.10;;;;;;;16.59;81.83;100227.25;5096581;28;20040;-71
2021/09/01 06:10:25;;;;;;;12.02;5.95;;;;;;;17.20;79.56;100236.44;5096216;28;20500;-72
2021/09/01 06:12:55;;;;;;;12.75;6.10;;;;;;;17.01;79.23;100243.44;5096076;28;20507;-76
2021/09/01 06:15:25;;;;;;;9.05;5.50;;;;;;;17.06;79.07;100227.69;5095610;28;20079;-77
2021/09/01 06:17:56;;;;;;;10.27;4.25;;;;;;;17.37;77.30;100225.00;5096533;28;20061;-79
2021/09/01 06:20:24;;;;;;;9.57;5.57;;;;;;;17.90;75.63;100230.16;5096140;28;20443;-77
2021/09/01 06:22:54;;;;;;;11.07;5.68;;;;;;;18.13;73.24;100245.06;5096095;28;20127;-77
2021/09/01 06:25:23;;;;;;;9.85;5.40;;;;;;;18.65;72.09;100242.97;5095801;28;20040;-80
2021/09/01 06:27:52;;;;;;;11.73;5.55;;;;;;;18.83;71.21;100249.34;5096186;28;20094;-80
2021/09/01 06:30:21;;;;;;;8.70;4.63;;;;;;;19.05;69.10;100236.50;5095728;28;20044;-76
2021/09/01 06:32:52;;;;;;;9.75;4.97;;;;;;;19.22;68.27;100276.28;5090708;28;20078;-75
2021/09/01 06:35:21;;;;;;;9.80;5.00;;;;;;;19.60;67.22;100242.00;5083026;28;20501;-75
2021/09/01 06:37:55;;;;;;;8.13;4.93;;;;;;;18.62;70.17;100237.81;5086334;28;20113;-74
2021/09/01 06:40:23;;;;;;;8.02;4.22;;;;;;;18.49;70.88;100243.53;5085120;28;20390;-76
2021/09/01 06:42:54;;;;;;;8.85;3.80;;;;;;;18.17;72.07;100230.31;5092441;28;20055;-75
2021/09/01 06:45:22;;;;;;;9.52;4.88;;;;;;;17.72;74.05;100244.31;5095224;28;20087;-77
2021/09/01 06:47:52;;;;;;;7.93;4.75;;;;;;;17.21;76.07;100246.22;5095775;28;20044;-76
2021/09/01 06:50:22;;;;;;;10.43;5.70;;;;;;;17.44;75.43;100255.81;5095011;28;20488;-77
2021/09/01 06:52:54;;;;;;;11.70;5.28;;;;;;;17.57;75.11;100261.84;5095903;28;20465;-75
2021/09/01 06:55:23;;;;;;;8.00;5.07;;;;;;;17.44;75.79;100258.50;5095241;28;20497;-72
2021/09/01 06:57:52;;;;;;;7.75;4.53;;;;;;;17.56;75.05;100267.34;5095271;28;20044;-74
2021/09/01 07:00:20;;;;;;;11.93;5.88;;;;;;;17.61;75.13;100260.56;5095449;28;20044;-72
2021/09/01 07:02:49;;;;;;;8.15;4.82;;;;;;;17.56;74.62;100268.19;5095323;28;20040;-72
2021/09/01 07:05:19;;;;;;;7.65;4.75;;;;;;;17.62;74.12;100258.72;5094983;28;20132;-72
2021/09/01 07:07:47;;;;;;;8.43;4.47;;;;;;;17.37;75.43;100262.72;5095481;28;20084;-73
2021/09/01 07:10:16;;;;;;;8.77;5.43;;;;;;;17.43;75.31;100273.84;5095130;28;20046;-74
2021/09/01 07:12:45;;;;;;;9.25;5.10;;;;;;;17.22;76.05;100274.88;5095328;28;20040;-73
2021/09/01 07:15:14;;;;;;;12.48;5.60;;;;;;;17.29;76.32;100311.09;5094902;28;20504;-74
2021/09/01 07:17:42;;;;;;;8.77;5.18;;;;;;;17.54;75.17;100290.91;5094772;28;20509;-73
2021/09/01 07:20:11;;;;;;;9.07;4.93;;;;;;;17.23;76.01;100299.00;5094754;28;20477;-73
2021/09/01 07:22:40;;;;;;;10.40;5.82;;;;;;;17.22;76.19;100310.78;5094796;28;20515;-73
2021/09/01 07:25:09;;;;;;;8.20;5.30;;;;;;;17.04;76.57;100304.28;5094976;28;20075;-73
2021/09/01 07:27:38;;;;;;;9.32;5.20;;;;;;;17.12;76.38;100313.41;5094997;28;20048;-73
2021/09/01 07:30:10;;;;;;;6.63;4.40;;;;;;;16.95;77.01;100326.63;5094964;28;20131;-73
2021/09/01 07:32:38;;;;;;;9.85;5.45;;;;;;;16.98;77.20;100321.81;5095002;28;20046;-73
2021/09/01 07:35:07;;;;;;;9.55;5.38;;;;;;;16.95;77.28;100324.78;5094923;28;20040;-73
2021/09/01 07:37:45;;;;;;;8.60;5.28;;;;;;;17.15;75.82;100325.75;5076359;28;20054;-73
2021/09/01 07:40:15;;;;;;;9.65;5.40;;;;;;;17.08;76.27;100333.53;5094539;28;20055;-79
2021/09/01 07:42:44;;;;;;;10.45;4.97;;;;;;;17.38;75.04;100338.13;5094569;28;20427;-73
2021/09/01 07:45:14;;;;;;;8.93;5.32;;;;;;;17.16;75.51;100339.09;5093740;28;20043;-73
2021/09/01 07:47:52;;;;;;;8.85;5.13;;;;;;;17.39;74.95;100336.28;5094815;28;20048;-73
2021/09/01 07:50:23;;;;;;;9.55;5.40;;;;;;;17.44;74.63;100340.25;5094605;28;20036;-72
2021/09/01 07:52:51;;;;;;;10.23;5.65;;;;;;;17.15;75.26;100344.63;5094180;28;20153;-71
2021/09/01 07:55:20;;;;;;;9.23;5.22;;;;;;;17.12;75.38;100340.38;5094241;28;20393;-72
2021/09/01 07:57:51;;;;;;;8.70;5.10;;;;;;;17.31;74.99;100336.09;5094127;28;20055;-73
2021/09/01 08:00:21;;;;;;;8.68;4.90;;;;;;;17.30;74.98;100337.94;5094393;28;20093;-73
2021/09/01 08:02:52;;;;;;;11.98;5.00;;;;;;;17.48;74.29;100346.25;5094583;28;20389;-72
2021/09/01 08:05:21;;;;;;;10.20;4.85;;;;;;;17.35;74.34;100351.00;5094130;28;20431;-73
2021/09/01 08:07:49;;;;;;;8.55;4.50;;;;;;;17.47;73.35;100363.44;5094150;28;20044;-72
2021/09/01 08:10:18;;;;;;;12.70;5.10;;;;;;;17.50;73.74;100338.03;5093665;28;20044;-73
2021/09/01 08:12:46;;;;;;;7.63;3.92;;;;;;;17.69;72.75;100355.19;5094153;28;20508;-72
2021/09/01 08:15:16;;;;;;;10.02;4.90;;;;;;;17.91;72.46;100354.13;5093772;28;20123;-74
2021/09/01 08:17:46;;;;;;;8.70;4.05;;;;;;;17.56;72.29;100397.66;5093959;28;20409;-74
2021/09/01 08:20:15;;;;;;;12.68;4.82;;;;;;;17.55;73.08;100357.34;5093698;28;20043;-72
2021/09/01 08:22:45;;;;;;;7.43;4.93;;;;;;;17.62;73.14;100359.38;5094034;28;20043;-72
2021/09/01 08:25:14;;;;;;;8.45;4.57;;;;;;;17.56;73.84;100376.06;5093574;28;20039;-72
2021/09/01 08:27:46;;;;;;;8.35;4.13;;;;;;;17.60;73.97;100366.75;5075832;28;20051;-72
2021/09/01 08:30:16;;;;;;;8.63;4.90;;;;;;;17.75;73.20;100369.97;5093547;28;20089;-72
2021/09/01 08:32:44;;;;;;;7.60;4.50;;;;;;;17.61;72.92;100383.78;5093687;28;20097;-71
2021/09/01 08:35:14;;;;;;;8.45;4.70;;;;;;;17.35;74.00;100377.94;5093541;28;20075;-72
2021/09/01 08:37:42;;;;;;;8.38;4.25;;;;;;;17.45;73.71;100379.72;5093826;28;20127;-73
2021/09/01 08:40:11;;;;;;;8.95;4.60;;;;;;;17.37;73.80;100384.94;5093790;28;20433;-73
2021/09/01 08:42:43;;;;;;;7.50;4.95;;;;;;;17.38;73.46;100399.28;5093494;28;20036;-73
2021/09/01 08:45:11;;;;;;;8.80;4.97;;;;;;;17.39;73.72;100400.97;5093482;28;20040;-73
2021/09/01 08:47:40;;;;;;;10.90;5.07;;;;;;;17.20;74.07;100406.25;5075378;28;20047;-73
2021/09/01 08:50:11;;;;;;;6.80;3.63;;;;;;;17.24;74.22;100410.38;5093639;28;20040;-73
2021/09/01 08:52:43;;;;;;;7.80;3.63;;;;;;;17.26;73.31;100401.16;5093535;28;20039;-73
2021/09/01 08:55:13;;;;;;;7.10;4.10;;;;;;;17.23;73.74;100400.59;5074693;28;20051;-72
2021/09/01 08:57:43;;;;;;;10.30;5.35;;;;;;;17.12;74.44;100393.41;5092842;28;20043;-72
2021/09/01 09:00:15;;;;;;;8.52;4.53;;;;;;;17.36;73.67;100395.84;5093584;28;20040;-72
2021/09/01 09:02:53;;;;;;;6.75;4.00;;;;;;;17.27;73.45;100407.41;5092915;28;20074;-72
2021/09/01 09:05:31;;;;;;;7.15;3.80;;;;;;;17.29;73.57;100408.16;5092926;28;20580;-71
2021/09/01 09:08:00;;;;;;;8.65;3.97;;;;;;;17.33;73.43;100429.31;5093284;28;20093;-72
2021/09/01 09:10:30;;;;;;;9.10;4.72;;;;;;;17.23;73.65;100416.75;5075369;28;20056;-73
2021/09/01 09:13:01;;;;;;;7.97;4.68;;;;;;;17.29;73.41;100411.69;5093720;28;20040;-72
2021/09/01 09:15:31;;;;;;;9.20;4.60;;;;;;;17.40;73.39;100418.88;5093125;28;20044;-72
2021/09/01 09:18:01;;;;;;;7.82;4.60;;;;;;;17.58;72.54;100406.50;5092809;28;20083;-72
2021/09/01 09:20:35;;;;;;;8.10;4.28;;;;;;;17.52;72.70;100433.97;5093247;28;20063;-72
2021/09/01 09:23:06;;;;;;;9.57;4.53;;;;;;;17.65;71.81;100423.81;5093113;28;20047;-73
2021/09/01 09:25:35;;;;;;;11.07;4.25;;;;;;;17.64;71.91;100411.34;5093045;28;20078;-73
2021/09/01 09:28:06;;;;;;;8.95;4.32;;;;;;;17.62;71.53;100421.41;5093195;28;20071;-72
2021/09/01 09:30:39;;;;;;;9.70;4.80;;;;;;;17.59;71.14;100429.78;5092960;28;20072;-71
2021/09/01 09:33:10;;;;;;;8.00;4.15;;;;;;;17.57;71.51;100409.34;5093193;28;20409;-72
2021/09/01 09:35:56;;;;;;;8.63;5.00;;;;;;;17.70;71.45;100389.25;5092842;28;20047;-72
2021/09/01 09:38:32;;;;;;;7.32;4.00;;;;;;;17.61;71.24;100435.88;5092897;28;20036;-74
2021/09/01 09:41:01;;;;;;;7.55;4.40;;;;;;;17.91;70.95;100407.25;5092840;28;20444;-72
2021/09/01 09:43:30;;;;;;;6.68;3.55;;;;;;;17.85;70.34;100418.56;5092436;28;20054;-73
2021/09/01 09:46:08;;;;;;;11.88;3.92;;;;;;;17.72;71.29;100411.56;5092668;28;20040;-73
2021/09/01 09:48:38;;;;;;;11.65;3.72;;;;;;;18.02;70.00;100404.44;5092795;28;20040;-72
2021/09/01 09:51:10;;;;;;;10.55;4.80;;;;;;;18.17;69.26;100411.19;5093031;28;20387;-73
2021/09/01 09:53:43;;;;;;;6.93;3.35;;;;;;;18.09;69.23;100405.63;5093086;28;20089;-73
2021/09/01 09:56:16;;;;;;;8.50;4.03;;;;;;;17.91;70.25;100415.34;5092839;28;20056;-72
2021/09/01 09:58:46;;;;;;;10.00;4.10;;;;;;;18.06;69.40;100403.19;5092260;28;20064;-72
2021/09/01 10:01:17;;;;;;;5.78;3.15;;;;;;;17.78;70.32;100414.72;5093271;28;20051;-72
2021/09/01 10:03:46;;;;;;;8.18;4.10;;;;;;;17.90;70.18;100435.22;5092450;28;20457;-72
2021/09/01 10:06:16;;;;;;;6.95;3.85;;;;;;;17.99;69.51;100442.50;5092508;28;20044;-73
2021/09/01 10:08:47;;;;;;;8.85;4.72;;;;;;;18.24;69.22;100444.75;5095988;28;20043;-72
2021/09/01 10:11:19;;;;;;;10.80;5.43;;;;;;;18.30;69.08;100433.38;5096237;28;20482;-72
2021/09/01 10:13:51;;;;;;;7.93;4.50;;;;;;;18.10;69.76;100423.50;5096324;28;20123;-73
2021/09/01 10:16:32;;;;;;;10.23;4.47;;;;;;;18.41;68.76;100426.16;5096298;28;20082;-73
2021/09/01 10:19:09;;;;;;;10.43;4.55;;;;;;;18.27;68.77;100406.66;5096547;28;20036;-74
2021/09/01 10:21:40;;;;;;;9.15;4.20;;;;;;;18.00;69.71;100433.41;5096000;28;20048;-74
2021/09/01 10:24:22;;;;;;;12.15;4.90;;;;;;;18.21;69.80;100419.84;5096240;28;20044;-73
2021/09/01 10:27:10;;;;;;;10.80;4.75;;;;;;;18.56;68.26;100419.38;5078719;28;20435;-72
2021/09/01 10:29:40;;;;;;;7.72;4.10;;;;;;;18.58;68.11;100422.81;5096099;28;20389;-73
2021/09/01 10:32:24;;;;;;;9.15;4.22;;;;;;;18.75;68.46;100435.66;5096171;28;20448;-72
2021/09/01 10:35:28;;;;;;;8.32;4.10;;;;;;;18.99;66.86;100419.03;5096171;28;20041;-73
2021/09/01 10:37:56;;;;;;;;;;;;;;;18.59;67.58;100430.75;5095975;28;20044;-72
2021/09/01 10:40:55;;;;;;;9.98;4.10;;;;;;;18.79;67.29;100447.88;5095989;28;19969;-72
2021/09/01 10:43:24;;;;;;;7.45;3.78;;;;;;;18.59;67.92;100438.00;5095794;28;20044;-72
2021/09/01 10:45:57;;;;;;;9.55;4.85;;;;;;;18.35;68.54;100442.94;5095538;28;20499;-72
2021/09/01 10:48:27;;;;;;;8.75;3.60;;;;;;;18.37;68.65;100443.66;5095039;28;20493;-72
2021/09/01 10:50:55;;;;;;;7.00;3.55;;;;;;;18.35;68.23;100448.34;5095497;28;20044;-73
2021/09/01 10:53:25;;;;;;;9.48;4.15;;;;;;;18.67;67.85;100453.56;5095155;28;20427;-72
2021/09/01 10:56:02;;;;;;;8.77;3.78;;;;;;;18.88;67.11;100446.19;5095342;28;20091;-72
2021/09/01 10:58:35;;;;;;;8.52;4.03;;;;;;;19.22;65.20;100451.19;5095386;28;20478;-72
2021/09/01 11:01:09;;;;;;;8.32;3.97;;;;;;;19.42;65.45;100467.25;5095453;28;20051;-72
2021/09/01 11:03:40;;;;;;;4.82;2.90;;;;;;;19.27;64.94;100452.47;5094936;28;20481;-73
2021/09/01 11:06:17;;;;;;;8.15;3.30;;;;;;;19.00;64.96;100465.81;5095536;28;20047;-72
2021/09/01 11:09:09;;;;;;;7.28;3.28;;;;;;;19.10;64.82;100461.28;5094925;28;20048;-72
2021/09/01 11:11:48;;;;;;;5.40;3.00;;;;;;;19.12;64.49;100465.56;5095036;28;20389;-72
2021/09/01 11:14:32;;;;;;;6.32;3.30;;;;;;;19.00;64.38;100455.00;5095119;28;20040;-72
2021/09/01 11:17:02;;;;;;;5.70;3.20;;;;;;;19.15;64.48;100461.72;5094752;28;20052;-73
2021/09/01 11:19:30;;;;;;;6.45;2.97;;;;;;;19.31;63.90;100462.00;5094530;28;20067;-72
2021/09/01 11:21:59;;;;;;;6.93;3.17;;;;;;;19.37;63.93;100453.31;5077113;28;20093;-72
2021/09/01 11:24:28;;;;;;;6.60;3.50;;;;;;;19.60;62.78;100453.91;5095032;28;20050;-73
2021/09/01 11:26:59;;;;;;;12.27;3.92;;;;;;;19.88;62.60;100437.69;5095032;28;20455;-72
2021/09/01 11:29:31;;;;;;;5.70;2.72;;;;;;;19.70;62.25;100456.59;5094922;28;20044;-71
2021/09/01 11:32:00;;;;;;;10.93;3.80;;;;;;;19.72;61.87;100478.94;5094898;28;20135;-72
2021/09/01 11:34:28;;;;;;;7.25;3.25;;;;;;;19.73;62.04;100431.91;5094782;28;20056;-73
2021/09/01 11:36:56;;;;;;;9.82;3.42;;;;;;;19.66;62.11;100438.91;5076444;28;20101;-72
2021/09/01 11:39:24;;;;;;;5.25;2.80;;;;;;;19.72;62.02;100435.63;5094281;28;20121;-72